Time;durP1;ratioP1;P1;durP2;ratioP2;P2;SDS_P1;SDS_P2;PMS_P1;PMS_P2;Temp;Humidity;BMP_temperature;BMP_pressure;BME280_temperature;BME280_humidity;BME280_pressure;Samples;Min_cycle;Max_cycle;Signal;HPM_P1;HPM_P2
2020/12/15 00:00:53;;;;;;;59.73;31.00;;;;;;;1.53;84.11;100999.64;1753953;80;21335;-48
2020/12/15 00:03:20;;;;;;;58.17;30.30;;;;;;;1.47;83.70;101000.72;1754972;81;21150;-48
2020/12/15 00:05:48;;;;;;;62.17;30.62;;;;;;;1.37;83.44;101001.93;1755008;81;21007;-48
2020/12/15 00:08:16;;;;;;;61.28;31.23;;;;;;;1.30;83.45;101003.04;1754378;80;20959;-47
2020/12/15 00:10:44;;;;;;;64.25;31.93;;;;;;;1.31;83.80;101006.05;1746563;80;21003;-48
2020/12/15 00:13:11;;;;;;;72.67;35.80;;;;;;;1.36;84.10;101004.58;1739731;81;22245;-47
2020/12/15 00:15:40;;;;;;;73.72;35.78;;;;;;;1.42;84.29;101001.76;1753514;81;21003;-48
2020/12/15 00:18:08;;;;;;;69.97;35.03;;;;;;;1.50;84.21;101007.57;1755123;81;21630;-47
2020/12/15 00:20:41;;;;;;;64.82;33.18;;;;;;;1.53;84.12;101006.63;1754977;80;21133;-46
2020/12/15 00:23:08;;;;;;;71.57;32.05;;;;;;;1.54;84.06;101007.86;1755127;80;21546;-46
2020/12/15 00:25:36;;;;;;;59.67;29.10;;;;;;;1.50;83.79;101003.66;1759832;80;21384;-47
2020/12/15 00:28:04;;;;;;;54.63;26.20;;;;;;;1.42;83.65;101001.76;1754886;81;21917;-46
2020/12/15 00:30:31;;;;;;;58.00;28.25;;;;;;;1.34;83.73;101002.03;1754148;81;21175;-48
2020/12/15 00:32:59;;;;;;;59.20;29.65;;;;;;;1.28;83.94;101004.84;1753956;81;21906;-47
2020/12/15 00:35:27;;;;;;;58.23;30.05;;;;;;;1.22;84.18;101004.58;1753988;81;21125;-47
2020/12/15 00:37:55;;;;;;;56.83;29.50;;;;;;;1.17;84.31;101005.19;1754039;81;21583;-47
2020/12/15 00:40:23;;;;;;;57.98;28.73;;;;;;;1.13;84.45;101009.66;1757441;80;21959;-47
2020/12/15 00:42:51;;;;;;;50.98;26.95;;;;;;;1.11;84.59;101015.38;1753303;81;21572;-47
2020/12/15 00:45:18;;;;;;;54.42;27.02;;;;;;;1.07;84.54;101015.08;1741858;81;20963;-47
2020/12/15 00:47:46;;;;;;;53.65;28.15;;;;;;;1.08;84.51;101017.22;1734100;82;21127;-47
2020/12/15 00:50:13;;;;;;;55.12;27.00;;;;;;;1.12;84.59;101011.00;1728446;82;22208;-47
2020/12/15 00:52:41;;;;;;;55.45;28.38;;;;;;;1.15;84.69;101013.07;1733961;81;21007;-46
2020/12/15 00:55:09;;;;;;;59.35;28.57;;;;;;;1.25;84.90;101020.59;1734677;82;21539;-47
2020/12/15 00:57:37;;;;;;;56.53;28.10;;;;;;;1.35;85.16;101018.09;1732882;82;21152;-47
2020/12/15 01:00:09;;;;;;;54.18;27.62;;;;;;;1.44;85.30;101016.47;1706006;82;21180;-47
2020/12/15 01:02:37;;;;;;;50.85;24.50;;;;;;;1.52;85.05;101023.19;1734276;82;22177;-47
2020/12/15 01:05:05;;;;;;;50.75;24.87;;;;;;;1.58;84.84;101027.73;1734052;82;21141;-48
2020/12/15 01:07:33;;;;;;;47.27;24.20;;;;;;;1.66;84.74;101030.53;1734097;82;21445;-48
2020/12/15 01:10:03;;;;;;;52.27;24.85;;;;;;;1.66;84.11;101025.31;1706805;82;21976;-48
2020/12/15 01:12:32;;;;;;;51.28;26.12;;;;;;;1.61;83.67;101021.54;1732409;82;21946;-48
2020/12/15 01:15:01;;;;;;;56.40;26.02;;;;;;;1.54;83.35;101022.69;1732701;82;21040;-48
2020/12/15 01:17:30;;;;;;;46.45;22.42;;;;;;;1.40;83.24;101027.91;1728212;81;21132;-48
2020/12/15 01:19:58;;;;;;;48.50;23.45;;;;;;;1.33;83.39;101025.95;1776806;80;22074;-47
2020/12/15 01:22:26;;;;;;;46.88;22.90;;;;;;;1.25;83.37;101020.13;1758614;80;21124;-47
2020/12/15 01:24:53;;;;;;;43.10;21.07;;;;;;;1.18;83.49;101022.53;1760956;81;22130;-47
2020/12/15 01:27:22;;;;;;;51.33;24.45;;;;;;;1.17;83.70;101024.74;1756299;81;21556;-47
2020/12/15 01:30:09;;;;;;;54.90;31.90;;;;;;;1.18;83.94;101025.14;1835554;76;38004;-46
2020/12/15 01:32:55;;;;;;;57.70;27.50;;;;;;;1.21;83.97;101018.52;1816800;77;21026;-47
2020/12/15 01:35:24;;;;;;;54.18;26.93;;;;;;;1.25;83.76;101011.00;1802388;77;21706;-47
2020/12/15 01:37:52;;;;;;;56.13;26.40;;;;;;;1.22;83.85;101011.10;1804186;77;21995;-47
2020/12/15 01:40:21;;;;;;;53.00;25.00;;;;;;;1.20;83.90;101014.21;1828392;77;21737;-47
2020/12/15 01:42:49;;;;;;;46.65;24.43;;;;;;;1.18;83.95;101022.09;1837508;77;22044;-46
2020/12/15 01:45:17;;;;;;;48.23;25.55;;;;;;;1.20;84.03;101018.12;1813445;77;21015;-47
2020/12/15 01:47:45;;;;;;;48.78;25.05;;;;;;;1.22;84.22;101022.00;1830506;77;22319;-47
2020/12/15 01:50:14;;;;;;;50.25;27.05;;;;;;;1.21;84.37;101019.83;1779420;79;21938;-46
2020/12/15 01:52:42;;;;;;;52.80;25.70;;;;;;;1.21;84.41;101019.83;1766078;80;20944;-47
2020/12/15 01:55:10;;;;;;;49.27;24.45;;;;;;;1.18;84.40;101018.19;1746287;80;21105;-47
2020/12/15 01:57:44;;;;;;;48.58;23.20;;;;;;;1.24;84.87;101021.03;1757251;80;21550;-47
2020/12/15 02:00:22;;;;;;;47.83;23.75;;;;;;;1.35;84.74;101015.91;1864175;76;22761;-46
2020/12/15 02:02:52;;;;;;;41.60;22.48;;;;;;;1.37;84.66;101024.54;1762391;80;21058;-46
2020/12/15 02:05:22;;;;;;;40.83;21.07;;;;;;;1.29;84.35;101019.13;1768379;80;21205;-46
2020/12/15 02:07:51;;;;;;;50.75;27.00;;;;;;;1.18;84.27;101022.53;1748866;80;22528;-47
2020/12/15 02:10:19;;;;;;;48.00;25.43;;;;;;;1.05;84.39;101019.95;1768538;80;21026;-46
2020/12/15 02:13:00;;;;;;;47.23;23.07;;;;;;;1.08;84.76;101011.56;1840842;76;22639;-48
2020/12/15 02:15:30;;;;;;;43.95;23.15;;;;;;;1.02;84.75;101015.23;1811730;77;21816;-48
2020/12/15 02:18:00;;;;;;;46.50;21.87;;;;;;;1.01;84.96;101014.84;1766733;80;21435;-47
2020/12/15 02:20:38;;;;;;;45.78;23.52;;;;;;;1.05;84.98;101011.66;1872344;76;23109;-48
2020/12/15 02:23:08;;;;;;;44.23;22.22;;;;;;;0.93;84.98;101012.92;1842661;77;21735;-47
2020/12/15 02:25:37;;;;;;;46.98;24.60;;;;;;;0.86;85.15;101005.73;1814166;77;21194;-47
2020/12/15 02:28:05;;;;;;;44.03;23.70;;;;;;;0.83;85.38;101005.83;1794800;77;21215;-47
2020/12/15 02:30:34;;;;;;;43.48;22.30;;;;;;;0.88;85.62;101010.91;1783269;78;21684;-47
2020/12/15 02:33:04;;;;;;;42.50;21.48;;;;;;;0.96;85.89;101007.61;1801866;77;21358;-47
2020/12/15 02:35:33;;;;;;;41.85;22.77;;;;;;;1.10;86.26;101002.38;1792740;78;22464;-47
2020/12/15 02:38:01;;;;;;;39.88;22.77;;;;;;;1.24;86.57;101005.38;1792175;78;21194;-47
2020/12/15 02:40:30;;;;;;;40.23;22.13;;;;;;;1.37;86.77;100999.32;1761028;78;21580;-47
2020/12/15 02:43:00;;;;;;;41.13;22.85;;;;;;;1.48;86.54;101008.08;1794065;78;22323;-48
2020/12/15 02:45:28;;;;;;;40.90;21.87;;;;;;;1.58;86.22;101011.23;1789304;78;21240;-48
2020/12/15 02:47:57;;;;;;;38.95;21.55;;;;;;;1.64;85.67;101012.30;1802890;77;21152;-47
2020/12/15 02:50:27;;;;;;;36.42;19.52;;;;;;;1.61;84.74;101012.41;1798542;78;22553;-47
2020/12/15 02:53:00;;;;;;;37.80;20.75;;;;;;;1.52;84.27;101017.97;1788332;78;21509;-47
2020/12/15 02:55:30;;;;;;;38.45;21.45;;;;;;;1.45;84.29;101014.70;1798578;78;21208;-47
2020/12/15 02:57:58;;;;;;;41.90;22.75;;;;;;;1.38;84.18;101014.51;1802345;78;21555;-46
2020/12/15 03:00:26;;;;;;;31.42;17.35;;;;;;;1.30;84.25;101014.31;1800242;78;21190;-46
2020/12/15 03:02:54;;;;;;;37.20;20.43;;;;;;;1.27;84.43;101014.41;1800835;77;21204;-47
2020/12/15 03:05:24;;;;;;;37.13;20.52;;;;;;;1.21;84.34;101019.83;1793049;78;21224;-46
2020/12/15 03:07:52;;;;;;;41.75;20.70;;;;;;;1.20;84.77;101018.59;1753130;78;22067;-47
2020/12/15 03:10:20;;;;;;;40.90;22.45;;;;;;;1.28;85.25;101017.89;1786562;78;21952;-47
2020/12/15 03:12:48;;;;;;;38.80;21.70;;;;;;;1.40;85.66;101020.52;1788374;78;20975;-46
2020/12/15 03:15:17;;;;;;;41.23;22.05;;;;;;;1.52;85.84;101025.80;1754682;79;21196;-47
2020/12/15 03:17:45;;;;;;;42.13;23.02;;;;;;;1.62;85.70;101025.42;1772845;78;21164;-47
2020/12/15 03:20:13;;;;;;;43.60;23.20;;;;;;;1.61;84.65;101021.54;1811878;77;20967;-47
2020/12/15 03:22:42;;;;;;;36.93;20.50;;;;;;;1.49;84.05;101024.13;1785034;78;20993;-47
2020/12/15 03:25:10;;;;;;;36.83;19.65;;;;;;;1.36;83.88;101027.62;1787781;78;21552;-47
2020/12/15 03:27:47;;;;;;;38.25;20.45;;;;;;;1.29;83.96;101026.11;1890451;74;22729;-47
2020/12/15 03:30:17;;;;;;;36.30;19.75;;;;;;;1.15;84.09;101033.94;1806743;79;20920;-47
2020/12/15 03:32:45;;;;;;;41.68;21.90;;;;;;;1.07;84.28;101029.85;1779544;78;22952;-47
2020/12/15 03:35:13;;;;;;;39.42;21.70;;;;;;;1.05;84.79;101035.59;1813830;77;21034;-47
2020/12/15 03:37:42;;;;;;;40.17;20.48;;;;;;;1.09;85.17;101034.13;1811002;77;20979;-47
2020/12/15 03:40:10;;;;;;;36.65;19.52;;;;;;;1.20;85.46;101040.29;1784156;79;20983;-47
2020/12/15 03:42:59;;;;;;;41.13;23.00;;;;;;;1.35;85.66;101035.04;1860861;76;22767;-46
2020/12/15 03:45:30;;;;;;;39.58;21.77;;;;;;;1.39;85.57;101041.86;1823806;77;21074;-46
2020/12/15 03:47:59;;;;;;;36.90;19.87;;;;;;;1.43;85.39;101042.59;1819205;77;21803;-46
2020/12/15 03:50:29;;;;;;;40.00;20.97;;;;;;;1.51;85.47;101035.83;1825884;77;21565;-47
2020/12/15 03:52:57;;;;;;;34.78;19.37;;;;;;;1.54;85.41;101039.17;1829654;77;21185;-46
2020/12/15 03:55:27;;;;;;;29.35;17.02;;;;;;;1.59;85.11;101041.18;1828143;77;22101;-47
2020/12/15 03:57:57;;;;;;;31.40;17.55;;;;;;;1.54;84.32;101040.95;1827111;77;21484;-48
2020/12/15 04:00:30;;;;;;;35.40;18.30;;;;;;;1.43;83.96;101043.91;1824705;77;21383;-47
2020/12/15 04:03:05;;;;;;;35.00;19.15;;;;;;;1.32;84.07;101046.41;1759554;80;21090;-47
2020/12/15 04:05:47;;;;;;;32.75;18.65;;;;;;;1.33;84.75;101053.80;1775658;79;21160;-46
2020/12/15 04:08:15;;;;;;;33.33;18.75;;;;;;;1.39;85.05;101057.52;1784945;79;21192;-47
2020/12/15 04:10:43;;;;;;;34.33;19.50;;;;;;;1.46;85.17;101056.84;1720350;81;21242;-47
2020/12/15 04:13:11;;;;;;;35.33;19.52;;;;;;;1.51;85.07;101058.85;1745524;80;22390;-47
2020/12/15 04:15:40;;;;;;;30.50;16.97;;;;;;;1.54;84.86;101054.84;1743583;80;21022;-47
2020/12/15 04:18:10;;;;;;;31.00;17.10;;;;;;;1.58;84.41;101059.52;1743725;80;20975;-47
2020/12/15 04:20:38;;;;;;;29.87;16.50;;;;;;;1.51;83.75;101061.92;1743753;80;22124;-48
2020/12/15 04:23:06;;;;;;;31.62;17.62;;;;;;;1.37;83.58;101055.41;1757776;80;20995;-48
2020/12/15 04:25:37;;;;;;;29.57;17.50;;;;;;;1.27;83.66;101061.36;1759033;80;21378;-47
2020/12/15 04:28:05;;;;;;;31.25;17.57;;;;;;;1.18;83.87;101070.34;1734746;80;21037;-48
2020/12/15 04:30:33;;;;;;;26.07;15.03;;;;;;;1.11;84.06;101070.57;1686022;81;22053;-47
2020/12/15 04:33:01;;;;;;;33.70;19.45;;;;;;;1.05;84.29;101065.58;1709162;81;22201;-47
2020/12/15 04:35:31;;;;;;;32.98;19.12;;;;;;;1.03;84.75;101073.00;1713927;81;21156;-47
2020/12/15 04:37:58;;;;;;;34.65;20.68;;;;;;;1.10;85.33;101072.34;1713169;81;22079;-48
2020/12/15 04:40:26;;;;;;;35.23;19.15;;;;;;;1.20;85.70;101074.66;1718062;81;21030;-48
2020/12/15 04:42:56;;;;;;;31.80;18.92;;;;;;;1.30;85.82;101080.82;1700613;80;21192;-47
2020/12/15 04:45:24;;;;;;;35.03;19.85;;;;;;;1.42;85.98;101085.24;1699807;81;21179;-48
2020/12/15 04:48:08;;;;;;;32.73;18.48;;;;;;;1.52;85.90;101087.11;1721302;81;21144;-47
2020/12/15 04:50:46;;;;;;;35.03;19.67;;;;;;;1.61;85.49;101079.82;1861371;76;22742;-48
2020/12/15 04:53:19;;;;;;;28.87;16.75;;;;;;;1.62;85.23;101087.18;1811576;77;22338;-47
2020/12/15 04:55:48;;;;;;;28.02;16.05;;;;;;;1.67;84.99;101092.27;1817358;77;21328;-47
2020/12/15 04:58:20;;;;;;;27.48;16.48;;;;;;;1.62;84.19;101090.66;1782852;78;22135;-47
2020/12/15 05:00:49;;;;;;;32.60;17.95;;;;;;;1.52;83.73;101085.81;1824234;77;20978;-47
2020/12/15 05:03:55;;;;;;;35.30;19.30;;;;;;;1.40;83.63;101083.14;1806062;77;22703;-92
2020/12/15 05:06:27;;;;;;;34.03;19.90;;;;;;;1.31;84.26;101094.27;1801076;78;21442;-92
2020/12/15 05:08:56;;;;;;;33.63;18.05;;;;;;;1.36;84.93;101091.52;1793717;78;21407;-47
2020/12/15 05:11:25;;;;;;;32.70;17.90;;;;;;;1.45;85.18;101099.49;1758355;79;21990;-47
2020/12/15 05:13:54;;;;;;;32.28;18.07;;;;;;;1.54;85.15;101093.97;1790381;78;21229;-46
2020/12/15 05:16:22;;;;;;;29.60;17.15;;;;;;;1.62;84.92;101102.84;1804141;78;22514;-46
2020/12/15 05:19:04;;;;;;;34.40;19.30;;;;;;;1.69;84.79;101097.82;1774924;78;21232;-47
2020/12/15 05:21:34;;;;;;;27.15;16.10;;;;;;;1.75;84.64;101104.14;1803785;78;21315;-46
2020/12/15 05:24:09;;;;;;;29.80;17.62;;;;;;;1.80;84.34;101111.83;1812076;78;21553;-47
2020/12/15 05:26:41;;;;;;;28.80;16.45;;;;;;;1.72;83.58;101114.69;1796960;77;21163;-47
2020/12/15 05:29:17;;;;;;;32.23;17.60;;;;;;;1.57;83.15;101117.36;1727992;80;21942;-47
2020/12/15 05:31:42;;;;;;;32.25;17.50;;;;;;;1.43;83.15;101116.52;1730619;80;22367;-47
2020/12/15 05:34:31;;;;;;;31.90;19.12;;;;;;;1.36;83.38;101112.83;1865504;76;22803;-48
2020/12/15 05:37:04;;;;;;;34.20;18.95;;;;;;;1.23;83.58;101115.83;1760215;77;21204;-48
2020/12/15 05:39:44;;;;;;;33.92;19.42;;;;;;;1.21;83.95;101120.70;1859640;76;22703;-48
2020/12/15 05:42:13;;;;;;;33.02;18.52;;;;;;;1.21;84.71;101127.22;1817703;77;21035;-48
2020/12/15 05:44:42;;;;;;;33.23;18.70;;;;;;;1.30;85.25;101120.41;1811747;77;23328;-48
2020/12/15 05:47:11;;;;;;;28.55;16.77;;;;;;;1.38;85.23;101135.81;1782090;77;21133;-48
2020/12/15 05:49:44;;;;;;;32.25;17.40;;;;;;;1.45;85.19;101137.33;1819703;77;20999;-47
2020/12/15 05:52:12;;;;;;;28.35;17.45;;;;;;;1.54;85.23;101144.86;1820512;77;20915;-48
2020/12/15 05:54:40;;;;;;;31.35;18.73;;;;;;;1.60;85.33;101147.27;1743658;80;22109;-48
2020/12/15 05:57:08;;;;;;;31.33;18.35;;;;;;;1.68;85.29;101148.31;1751910;80;21359;-47
2020/12/15 05:59:36;;;;;;;30.32;18.00;;;;;;;1.73;85.03;101152.93;1756342;80;20995;-47
2020/12/15 06:02:10;;;;;;;30.30;16.57;;;;;;;1.76;84.40;101158.05;1764072;80;21926;-47
2020/12/15 06:04:39;;;;;;;28.07;17.77;;;;;;;1.70;83.65;101155.64;1750560;80;22084;-47
2020/12/15 06:07:09;;;;;;;30.95;19.45;;;;;;;1.61;83.49;101157.24;1756519;80;21117;-47
2020/12/15 06:09:37;;;;;;;31.52;19.30;;;;;;;1.60;83.85;101160.32;1747944;80;22174;-47
2020/12/15 06:12:05;;;;;;;37.67;20.77;;;;;;;1.66;84.22;101162.33;1744968;80;21027;-47
2020/12/15 06:14:33;;;;;;;29.87;18.07;;;;;;;1.72;84.23;101171.27;1748357;80;20999;-47
2020/12/15 06:17:01;;;;;;;32.00;18.32;;;;;;;1.71;83.83;101169.09;1752563;80;20983;-47
2020/12/15 06:22:08;;;;;;;29.90;17.65;;;;;;;1.56;83.22;101171.76;1854703;74;22019;-48
2020/12/15 06:24:40;;;;;;;27.45;17.00;;;;;;;1.44;83.24;101170.84;1784915;77;22176;-47
2020/12/15 06:27:08;;;;;;;;;;;;;;;1.38;83.47;101172.33;1808640;77;21345;-47
2020/12/15 06:29:39;;;;;;;35.13;20.45;;;;;;;1.32;83.72;101176.84;1793464;78;21032;-48
2020/12/15 06:32:17;;;;;;;32.20;19.02;;;;;;;1.27;84.00;101177.42;1792044;78;21077;-46
2020/12/15 06:34:46;;;;;;;35.65;21.62;;;;;;;1.26;84.25;101184.84;1788143;77;21077;-48
2020/12/15 06:37:15;;;;;;;45.43;26.60;;;;;;;1.30;84.84;101183.86;1798161;78;21976;-47
2020/12/15 06:40:01;;;;;;;48.87;26.85;;;;;;;1.41;85.37;101187.89;1793764;78;22102;-48
2020/12/15 06:42:30;;;;;;;50.23;29.42;;;;;;;1.52;85.61;101193.63;1801339;78;21003;-46
2020/12/15 06:45:07;;;;;;;36.42;23.77;;;;;;;1.62;85.43;101207.23;1796327;78;22127;-48
2020/12/15 06:47:35;;;;;;;39.60;24.45;;;;;;;1.69;85.32;101215.27;1806668;78;21577;-48
2020/12/15 06:50:13;;;;;;;38.53;22.70;;;;;;;1.74;85.33;101213.37;1806254;78;21099;-47
2020/12/15 06:52:42;;;;;;;28.20;16.73;;;;;;;1.79;84.98;101214.55;1790865;78;22744;-48
2020/12/15 06:55:09;;;;;;;31.00;18.48;;;;;;;1.80;84.34;101217.56;1759935;80;20970;-46
2020/12/15 06:57:38;;;;;;;30.75;17.60;;;;;;;1.72;83.78;101216.95;1755001;80;21710;-48
2020/12/15 07:00:10;;;;;;;31.05;17.80;;;;;;;1.65;83.77;101221.95;1757076;80;22208;-48
2020/12/15 07:02:38;;;;;;;36.45;19.32;;;;;;;1.62;83.79;101215.06;1766506;80;21001;-48
2020/12/15 07:05:21;;;;;;;29.82;17.98;;;;;;;1.57;83.78;101220.91;1761862;80;21421;-46
2020/12/15 07:08:00;;;;;;;31.48;17.45;;;;;;;1.60;84.20;101222.08;1716793;81;20994;-47
2020/12/15 07:10:29;;;;;;;29.02;16.40;;;;;;;1.59;84.07;101217.80;1758601;80;20978;-47
2020/12/15 07:13:00;;;;;;;27.15;16.48;;;;;;;1.54;84.00;101221.84;1753125;80;22146;-47
2020/12/15 07:15:29;;;;;;;34.13;19.70;;;;;;;1.51;84.08;101219.32;1738711;81;21133;-47
2020/12/15 07:17:57;;;;;;;36.75;21.93;;;;;;;1.48;84.19;101222.02;1741522;81;21357;-47
2020/12/15 07:20:26;;;;;;;35.58;21.57;;;;;;;1.51;84.72;101217.17;1751090;80;21095;-46
2020/12/15 07:22:53;;;;;;;36.33;20.82;;;;;;;1.56;84.74;101220.03;1762633;80;21168;-47
2020/12/15 07:25:21;;;;;;;31.20;20.00;;;;;;;1.58;84.73;101222.61;1759210;80;21142;-47
2020/12/15 07:27:49;;;;;;;34.05;21.62;;;;;;;1.65;85.00;101225.88;1765218;79;21096;-47
2020/12/15 07:30:18;;;;;;;49.67;29.80;;;;;;;1.68;84.80;101220.09;1776312;80;21370;-47
2020/12/15 07:32:47;;;;;;;40.20;23.70;;;;;;;1.69;84.96;101226.18;1752588;80;21236;-47
2020/12/15 07:35:23;;;;;;;39.10;24.02;;;;;;;1.73;84.93;101229.93;1740236;81;21002;-47
2020/12/15 07:37:58;;;;;;;41.02;24.18;;;;;;;1.72;84.63;101228.23;1761774;80;21139;-47
2020/12/15 07:40:28;;;;;;;45.25;25.40;;;;;;;1.70;84.46;101230.50;1724885;80;21596;-47
2020/12/15 07:43:02;;;;;;;42.53;23.22;;;;;;;1.69;84.32;101232.70;1762843;80;22971;-48
2020/12/15 07:45:31;;;;;;;40.98;22.35;;;;;;;1.70;84.39;101235.72;1770522;80;22078;-46
2020/12/15 07:47:59;;;;;;;40.08;23.40;;;;;;;1.75;84.61;101232.05;1761947;80;21159;-46
2020/12/15 07:50:28;;;;;;;38.02;22.00;;;;;;;1.78;84.50;101238.94;1741527;81;21547;-47
2020/12/15 07:53:07;;;;;;;42.17;24.70;;;;;;;1.79;84.43;101243.26;1763414;80;22033;-47
2020/12/15 07:55:35;;;;;;;39.25;23.15;;;;;;;1.79;84.41;101235.86;1725128;80;21201;-48
2020/12/15 07:58:03;;;;;;;39.27;22.10;;;;;;;1.80;84.37;101237.14;1753003;80;21029;-47
2020/12/15 08:00:31;;;;;;;40.40;24.20;;;;;;;1.81;84.38;101234.92;1745421;81;21035;-47
2020/12/15 08:03:02;;;;;;;39.78;21.95;;;;;;;1.83;84.41;101233.13;1772382;80;21795;-47
2020/12/15 08:05:30;;;;;;;38.57;21.57;;;;;;;1.89;84.77;101236.84;1756219;80;21154;-47
2020/12/15 08:08:01;;;;;;;35.08;20.62;;;;;;;1.99;84.90;101237.85;1760029;79;22827;-47
2020/12/15 08:10:32;;;;;;;35.30;21.93;;;;;;;2.02;84.79;101238.59;1750578;79;20991;-47
2020/12/15 08:13:09;;;;;;;36.65;21.17;;;;;;;2.16;85.12;101236.82;1866435;76;22380;-48
2020/12/15 08:15:38;;;;;;;38.60;21.25;;;;;;;2.17;84.72;101237.69;1842248;77;21167;-48
2020/12/15 08:18:10;;;;;;;41.18;22.90;;;;;;;2.20;84.72;101242.81;1839135;77;22494;-48
2020/12/15 08:20:40;;;;;;;43.50;24.00;;;;;;;2.25;84.51;101240.91;1841440;77;21915;-47
2020/12/15 08:23:11;;;;;;;39.88;23.15;;;;;;;2.29;84.22;101244.25;1846406;77;20998;-48
2020/12/15 08:25:45;;;;;;;45.35;24.30;;;;;;;2.34;84.21;101247.13;1833974;77;20920;-51
2020/12/15 08:28:24;;;;;;;44.27;25.05;;;;;;;2.40;84.08;101245.21;1839031;77;21901;-47
2020/12/15 08:30:53;;;;;;;44.45;25.43;;;;;;;2.44;84.00;101247.66;1812051;78;21384;-48
2020/12/15 08:33:24;;;;;;;45.30;25.32;;;;;;;2.47;83.79;101247.55;1811512;78;21061;-47
2020/12/15 08:35:52;;;;;;;;;;;;;;;2.50;83.68;101242.22;1769610;78;21023;-48
2020/12/15 08:38:20;;;;;;;45.20;24.47;;;;;;;2.49;83.35;101239.20;1780341;80;20917;-48
2020/12/15 08:40:57;;;;;;;49.23;26.80;;;;;;;2.48;83.34;101241.88;1770270;80;20993;-47
2020/12/15 08:43:26;;;;;;;42.93;24.00;;;;;;;2.48;83.21;101248.41;1774529;80;21693;-47
2020/12/15 08:45:53;;;;;;;38.25;21.82;;;;;;;2.47;83.25;101252.77;1777490;80;20964;-48
2020/12/15 08:48:23;;;;;;;39.18;21.33;;;;;;;2.49;83.30;101252.73;1776637;79;21020;-47
2020/12/15 08:50:50;;;;;;;36.05;19.52;;;;;;;2.46;83.09;101245.84;1811548;78;21975;-47
2020/12/15 08:53:20;;;;;;;35.30;18.87;;;;;;;2.45;83.14;101245.91;1807299;78;21125;-48
2020/12/15 08:55:48;;;;;;;33.08;17.77;;;;;;;2.42;82.78;101249.93;1807794;78;21419;-48
2020/12/15 08:58:17;;;;;;;35.68;18.90;;;;;;;2.34;82.68;101252.78;1803796;78;21023;-48
2020/12/15 09:00:46;;;;;;;39.95;21.40;;;;;;;2.26;82.75;101245.66;1803846;78;22128;-48
2020/12/15 09:03:18;;;;;;;39.42;20.43;;;;;;;2.19;82.92;101252.86;1779031;80;21923;-47
2020/12/15 09:05:53;;;;;;;40.23;19.92;;;;;;;2.13;83.10;101247.37;1800816;78;20963;-48
2020/12/15 09:08:23;;;;;;;39.90;21.33;;;;;;;2.11;83.38;101250.95;1805044;78;21444;-47
2020/12/15 09:10:52;;;;;;;40.65;22.30;;;;;;;2.07;83.50;101251.52;1809486;78;20999;-47
2020/12/15 09:13:20;;;;;;;42.50;22.62;;;;;;;2.05;83.77;101248.10;1779511;79;22168;-48
2020/12/15 09:15:56;;;;;;;38.75;20.17;;;;;;;2.03;84.01;101244.69;1776954;80;22013;-46
2020/12/15 09:18:34;;;;;;;41.92;21.87;;;;;;;2.02;84.11;101247.73;1767237;80;20991;-47
2020/12/15 09:21:16;;;;;;;39.70;20.08;;;;;;;1.99;84.05;101250.91;1806138;78;23023;-47
2020/12/15 09:23:49;;;;;;;33.02;17.20;;;;;;;1.97;84.17;101245.72;1777303;79;21025;-47
2020/12/15 09:26:17;;;;;;;37.70;19.48;;;;;;;1.95;84.27;101246.69;1812011;78;21129;-47
2020/12/15 09:28:44;;;;;;;39.42;20.65;;;;;;;1.93;84.35;101245.88;1796930;78;22137;-47
2020/12/15 09:31:17;;;;;;;36.30;17.77;;;;;;;1.91;84.49;101251.14;1770505;80;21155;-47
2020/12/15 09:33:45;;;;;;;40.33;21.25;;;;;;;1.90;84.57;101254.22;1800405;78;22964;-46
2020/12/15 09:36:14;;;;;;;41.33;21.60;;;;;;;1.90;84.62;101251.61;1787698;78;20967;-47
2020/12/15 09:38:41;;;;;;;43.55;22.62;;;;;;;1.90;84.70;101252.91;1800962;78;21011;-46
2020/12/15 09:41:08;;;;;;;40.25;19.98;;;;;;;1.93;84.74;101247.19;1808965;78;21109;-47
2020/12/15 09:43:36;;;;;;;41.05;20.95;;;;;;;1.93;84.76;101245.88;1796181;78;21129;-46
2020/12/15 09:46:04;;;;;;;44.67;21.42;;;;;;;1.94;84.76;101243.67;1803489;78;22512;-47
2020/12/15 09:48:32;;;;;;;45.15;22.10;;;;;;;1.96;84.81;101249.70;1806696;78;21141;-47
2020/12/15 09:51:00;;;;;;;39.67;20.32;;;;;;;1.95;84.83;101243.61;1809905;78;21940;-47
2020/12/15 09:53:28;;;;;;;40.48;20.25;;;;;;;1.98;84.90;101249.20;1810322;78;20936;-47
2020/12/15 09:55:56;;;;;;;47.30;21.95;;;;;;;1.97;84.89;101246.19;1769166;79;21613;-47
2020/12/15 09:58:26;;;;;;;45.90;22.15;;;;;;;2.00;84.89;101247.39;1769009;79;21365;-47
2020/12/15 10:00:55;;;;;;;46.77;23.80;;;;;;;2.02;84.75;101252.12;1769475;80;20975;-47
2020/12/15 10:03:23;;;;;;;50.70;25.23;;;;;;;2.02;84.79;101248.20;1804294;78;20995;-47
2020/12/15 10:05:51;;;;;;;49.88;25.57;;;;;;;2.05;84.76;101242.88;1775216;80;21151;-47
2020/12/15 10:08:22;;;;;;;56.40;27.67;;;;;;;2.05;84.64;101248.10;1773367;80;22138;-47
2020/12/15 10:10:50;;;;;;;54.15;27.58;;;;;;;2.03;84.55;101247.30;1804813;78;21354;-47
2020/12/15 10:13:18;;;;;;;55.55;28.00;;;;;;;2.03;84.62;101240.77;1795524;78;21023;-47
2020/12/15 10:15:45;;;;;;;53.13;27.90;;;;;;;2.04;84.63;101238.09;1777248;78;22109;-46
2020/12/15 10:18:13;;;;;;;57.15;28.70;;;;;;;2.09;84.68;101237.09;1792261;78;20979;-46
2020/12/15 10:20:40;;;;;;;55.95;27.50;;;;;;;2.14;84.60;101240.41;1777831;80;21137;-46
2020/12/15 10:23:08;;;;;;;54.42;25.65;;;;;;;2.16;84.52;101237.29;1774304;80;22095;-46
2020/12/15 10:25:36;;;;;;;53.92;25.12;;;;;;;2.19;84.48;101238.02;1799914;78;20976;-47
2020/12/15 10:28:03;;;;;;;54.38;25.17;;;;;;;2.22;84.47;101244.92;1800739;78;20971;-47
2020/12/15 10:30:31;;;;;;;54.55;27.70;;;;;;;2.27;84.47;101241.70;1800544;78;21006;-47
2020/12/15 10:32:59;;;;;;;62.00;28.17;;;;;;;2.31;84.35;101240.70;1805650;78;20971;-47
2020/12/15 10:35:27;;;;;;;56.15;27.25;;;;;;;2.35;84.27;101244.05;1773542;78;21444;-47
2020/12/15 10:37:54;;;;;;;53.58;27.15;;;;;;;2.41;84.38;101248.23;1807805;78;20983;-47
2020/12/15 10:40:21;;;;;;;52.20;26.75;;;;;;;2.48;84.22;101245.34;1788851;78;21125;-47
2020/12/15 10:42:49;;;;;;;45.17;22.17;;;;;;;2.51;83.81;101242.61;1810459;78;21963;-47
2020/12/15 10:45:18;;;;;;;49.38;24.72;;;;;;;2.50;83.24;101246.61;1805199;78;20968;-46
2020/12/15 10:47:45;;;;;;;41.15;20.85;;;;;;;2.42;83.04;101248.16;1803965;78;21405;-47
2020/12/15 10:50:15;;;;;;;40.58;22.20;;;;;;;2.34;83.17;101246.25;1759424;78;21024;-46
2020/12/15 10:52:42;;;;;;;41.73;21.90;;;;;;;2.28;83.38;101252.99;1775889;79;21002;-46
2020/12/15 10:55:10;;;;;;;42.03;21.07;;;;;;;2.23;83.56;101248.38;1780730;79;21165;-46
2020/12/15 10:57:38;;;;;;;38.95;21.07;;;;;;;2.17;83.74;101252.89;1770699;79;21637;-47
2020/12/15 11:00:06;;;;;;;36.45;19.23;;;;;;;2.13;83.85;101256.52;1783361;79;22037;-47
2020/12/15 11:02:34;;;;;;;39.75;21.45;;;;;;;2.11;84.04;101264.88;1778444;79;20998;-47
2020/12/15 11:05:01;;;;;;;48.55;22.98;;;;;;;2.09;84.10;101262.77;1780662;79;22082;-47
2020/12/15 11:07:29;;;;;;;49.33;24.47;;;;;;;2.07;84.06;101265.88;1784084;79;21130;-47
2020/12/15 11:09:57;;;;;;;51.18;26.10;;;;;;;2.01;84.04;101275.22;1782949;79;22148;-47
2020/12/15 11:12:25;;;;;;;55.25;30.90;;;;;;;1.97;84.25;101272.30;1769855;79;22091;-46
2020/12/15 11:14:53;;;;;;;54.10;26.12;;;;;;;1.94;84.46;101278.92;1753172;80;21014;-47
2020/12/15 11:17:20;;;;;;;44.40;22.37;;;;;;;1.94;84.54;101278.92;1760980;80;21900;-46
2020/12/15 11:19:48;;;;;;;48.13;23.77;;;;;;;1.93;84.61;101278.52;1781291;79;21142;-46
2020/12/15 11:22:16;;;;;;;49.30;22.52;;;;;;;1.91;84.73;101275.51;1782524;79;21108;-46
2020/12/15 11:24:43;;;;;;;50.23;24.55;;;;;;;1.91;84.87;101274.20;1778602;79;22192;-46
2020/12/15 11:27:11;;;;;;;44.77;23.35;;;;;;;1.90;84.97;101280.33;1776797;80;21034;-46
2020/12/15 11:29:39;;;;;;;44.55;22.13;;;;;;;1.90;85.08;101281.64;1776321;80;21129;-46
2020/12/15 11:32:06;;;;;;;42.73;21.73;;;;;;;1.89;85.02;101286.45;1775658;79;21847;-46